This is the latest recevied weather packets stored in our database for station/object KE9DBJ-13. If no packets are shown the sender has not sent any weather packets the latest 10 day(s).
| Time | Temp. | Humidity | Pressure | Rain* | Wind** | Luminosity | Snow |
|---|---|---|---|---|---|---|---|
| 1788276602 | 31.67° C | 68% | 1017.6 hPa | 0 mm | - | - | - |
| 1788276003 | 31.11° C | 70% | 1017.6 hPa | 0 mm | - | - | - |
| 1788273602 | 29.44° C | 75% | 1017.9 hPa | 0 mm | - | - | - |
| 1788273002 | 28.89° C | 77% | 1018 hPa | 0 mm | - | - | - |
| 1788272402 | 27.78° C | 80% | 1018.1 hPa | 0 mm | - | - | - |
| 1788271802 | 27.22° C | 81% | 1018.2 hPa | 0 mm | - | - | - |
| 1788271203 | 26.67° C | 84% | 1018.1 hPa | 0 mm | - | - | - |
| 1788270603 | 25.56° C | 87% | 1018.1 hPa | 0 mm | - | - | - |
| 1788270003 | 23.89° C | 90% | 1018.3 hPa | 0 mm | - | - | - |
| 1788269403 | 22.78° C | 93% | 1018.4 hPa | 0 mm | - | - | - |
| 1788268803 | 22.22° C | 93% | 1018.6 hPa | 0 mm | - | - | - |
| 1788268203 | 21.67° C | 93% | 1018.7 hPa | 0 mm | - | - | - |
| 1788267603 | 21.11° C | 93% | 1018.7 hPa | 0 mm | - | - | - |
| 1788266402 | 20.56° C | 93% | 1018.8 hPa | 0 mm | - | - | - |
| 1788265802 | 20.56° C | 93% | 1018.7 hPa | 0 mm | - | - | - |
| 1788265202 | 20° C | 93% | 1018.7 hPa | 0 mm | - | - | - |
| 1788264602 | 19.44° C | 93% | 1018.6 hPa | 0 mm | - | - | - |
| 1788264002 | 19.44° C | 93% | 1018.5 hPa | 0 mm | - | - | - |
| 1788262802 | 19.44° C | 93% | 1018.1 hPa | 0 mm | - | - | - |
| 1788262202 | 19.44° C | 93% | 1018 hPa | 0 mm | - | - | - |
| 1788261602 | 20° C | 93% | 1017.9 hPa | 0 mm | - | - | - |
| 1788261003 | 19.44° C | 93% | 1017.6 hPa | 0 mm | - | - | - |
| 1788260403 | 19.44° C | 93% | 1017.7 hPa | 0 mm | - | - | - |
| 1788259803 | 19.44° C | 93% | 1017.7 hPa | 0 mm | - | - | - |
| 1788259203 | 19.44° C | 93% | 1017.5 hPa | 0 mm | - | - | - |
* Rain latest hour (hover to see other rain measurements)
** Current wind speed in m/s (hover to see current wind gust speed)